Time;durP1;ratioP1;P1;durP2;ratioP2;P2;SDS_P1;SDS_P2;PMS_P1;PMS_P2;Temp;Humidity;BMP_temperature;BMP_pressure;BME280_temperature;BME280_humidity;BME280_pressure;Samples;Min_cycle;Max_cycle;Signal;HPM_P1;HPM_P2
2022/10/28 00:00:41;;;;;;;13.98;7.90;;;;;;;14.64;65.62;101144.97;7718274;32;37951;-73
2022/10/28 00:04:57;;;;;;;14.13;7.20;;;;;;;14.40;66.52;101143.66;7737700;32;39297;-73
2022/10/28 00:09:14;;;;;;;12.37;6.53;;;;;;;14.43;66.62;101143.97;7737815;32;40068;-72
2022/10/28 00:13:30;;;;;;;14.27;7.22;;;;;;;14.58;65.69;101135.03;7722036;32;37978;-72
2022/10/28 00:17:46;;;;;;;24.10;12.00;;;;;;;14.36;66.60;101137.06;7710694;32;37322;-72
2022/10/28 00:22:02;;;;;;;18.70;10.45;;;;;;;14.58;66.20;101134.19;7726102;32;39357;-73
2022/10/28 00:26:24;;;;;;;28.12;14.82;;;;;;;14.92;65.28;101131.94;7737364;32;39977;-72
2022/10/28 00:30:40;;;;;;;26.42;13.75;;;;;;;14.38;67.86;101130.22;7728934;32;39134;-72
2022/10/28 00:34:57;;;;;;;29.55;14.48;;;;;;;14.52;67.23;101136.09;7710282;32;36963;-72
2022/10/28 00:39:15;;;;;;;27.85;14.23;;;;;;;14.53;67.24;101134.16;7718271;32;39318;-72
2022/10/28 00:43:49;;;;;;;30.17;14.50;;;;;;;14.34;68.03;101128.28;7737034;32;40308;-72
2022/10/28 00:48:07;;;;;;;26.95;14.52;;;;;;;14.73;66.69;101128.81;7735471;32;38835;-71
2022/10/28 00:52:27;;;;;;;30.92;15.50;;;;;;;14.58;66.97;101132.31;7708548;32;38164;-72
2022/10/28 00:56:48;;;;;;;28.58;15.45;;;;;;;14.89;65.73;101118.72;7708679;32;39225;-72
2022/10/28 01:01:04;;;;;;;27.48;14.70;;;;;;;14.29;67.70;101112.63;7729093;32;40802;-72
2022/10/28 01:05:25;;;;;;;31.08;15.27;;;;;;;14.32;67.89;101114.00;7736468;32;38820;-72
2022/10/28 01:09:42;;;;;;;28.55;15.10;;;;;;;14.29;67.83;101109.88;7714733;32;37982;-72
2022/10/28 01:14:09;;;;;;;29.75;15.30;;;;;;;14.64;66.72;101109.28;7709325;32;39293;-72
2022/10/28 01:18:37;;;;;;;30.48;16.05;;;;;;;14.80;66.36;101115.69;7707433;32;40835;-71
2022/10/28 01:23:32;;;;;;;27.52;15.77;;;;;;;14.75;66.32;101114.84;7722777;32;38729;-72
2022/10/28 01:28:16;;;;;;;27.50;15.10;;;;;;;14.78;66.13;101111.53;7728546;32;38137;-72
2022/10/28 01:33:05;;;;;;;27.58;14.93;;;;;;;14.79;65.98;101108.53;7723957;32;39386;-72
2022/10/28 01:37:28;;;;;;;29.05;13.75;;;;;;;14.72;66.44;101118.09;7716869;32;39965;-72
2022/10/28 01:41:50;;;;;;;26.12;13.98;;;;;;;14.87;65.93;101112.69;7709700;32;38932;-72
2022/10/28 01:46:25;;;;;;;29.20;15.32;;;;;;;14.51;66.76;101112.47;7722584;32;38019;-72
2022/10/28 01:50:55;;;;;;;32.65;16.50;;;;;;;14.65;66.38;101110.94;7738326;32;40153;-72
2022/10/28 01:55:16;;;;;;;28.92;16.37;;;;;;;14.77;66.21;101104.41;7738691;32;39729;-72
2022/10/28 01:59:33;;;;;;;32.58;15.18;;;;;;;14.66;66.55;101106.28;7725886;32;38806;-71
2022/10/28 02:03:49;;;;;;;32.58;16.73;;;;;;;14.61;66.79;101112.56;7725576;32;37163;-72
2022/10/28 02:08:18;;;;;;;29.35;15.10;;;;;;;14.35;67.70;101117.06;7738916;32;40176;-72
2022/10/28 02:12:36;;;;;;;31.42;16.70;;;;;;;14.34;67.96;101111.81;7739108;32;39999;-72
2022/10/28 02:17:35;;;;;;;30.58;16.25;;;;;;;14.49;67.64;101119.31;7723576;32;38772;-71
2022/10/28 02:22:02;;;;;;;27.73;14.95;;;;;;;14.67;66.92;101109.84;7731808;32;37409;-72
2022/10/28 02:26:35;;;;;;;32.03;15.05;;;;;;;14.85;66.29;101106.66;7718359;32;39374;-73
2022/10/28 02:31:01;;;;;;;;;;;;;;;14.69;66.68;101102.97;7711011;32;39970;-72
2022/10/28 02:35:24;;;;;;;27.35;14.70;;;;;;;14.62;67.14;101103.22;7712260;32;38083;-72
2022/10/28 02:39:43;;;;;;;;;;;;;;;14.50;67.21;101108.06;7712397;32;37062;-71
2022/10/28 02:44:04;;;;;;;29.30;13.60;;;;;;;14.53;67.00;101104.81;7736756;32;40096;-72
2022/10/28 02:48:51;;;;;;;27.30;13.57;;;;;;;14.26;68.04;101103.00;7725097;32;39756;-72
2022/10/28 02:53:18;;;;;;;26.08;14.00;;;;;;;14.55;67.00;101108.09;7700324;32;37849;-72
2022/10/28 02:57:47;;;;;;;27.27;14.15;;;;;;;14.61;66.90;101101.59;7712094;32;37227;-72
2022/10/28 03:02:04;;;;;;;25.65;13.68;;;;;;;14.58;66.70;101098.53;7710651;32;40001;-72
2022/10/28 03:06:20;;;;;;;28.90;13.75;;;;;;;14.47;67.20;101103.12;7711794;32;40777;-71
2022/10/28 03:10:36;;;;;;;29.40;14.50;;;;;;;14.49;67.38;101097.34;7714149;32;38024;-71
2022/10/28 03:14:52;;;;;;;26.77;13.40;;;;;;;14.42;67.43;101095.69;7711447;32;38438;-72
2022/10/28 03:19:09;;;;;;;28.35;14.55;;;;;;;14.48;67.35;101102.03;7711234;32;39150;-73
2022/10/28 03:23:25;;;;;;;31.98;15.13;;;;;;;14.48;67.51;101102.03;7711596;32;39749;-72
2022/10/28 03:27:41;;;;;;;31.83;14.55;;;;;;;14.16;68.87;101097.47;7710144;32;37650;-72
2022/10/28 03:31:57;;;;;;;32.38;15.90;;;;;;;14.24;68.46;101099.69;7711594;32;37164;-72
2022/10/28 03:36:13;;;;;;;29.48;15.05;;;;;;;14.34;68.09;101095.38;7711342;32;39292;-72
2022/10/28 03:40:30;;;;;;;29.05;14.23;;;;;;;14.41;67.66;101091.28;7711310;32;41016;-71
2022/10/28 03:44:46;;;;;;;27.37;13.35;;;;;;;13.96;69.11;101083.59;7711057;32;38998;-71
2022/10/28 03:49:02;;;;;;;30.35;14.15;;;;;;;14.41;67.76;101087.72;7711184;32;37454;-71
2022/10/28 03:53:19;;;;;;;28.85;14.15;;;;;;;14.48;67.24;101082.00;7711001;32;39855;-71
2022/10/28 03:57:35;;;;;;;30.62;13.65;;;;;;;14.18;68.31;101089.78;7710981;32;40721;-72
2022/10/28 04:01:51;;;;;;;25.55;13.38;;;;;;;14.50;67.40;101085.31;7710950;32;38053;-73
2022/10/28 04:06:11;;;;;;;26.10;11.75;;;;;;;14.23;68.18;101084.34;7709551;32;37205;-72
2022/10/28 04:10:27;;;;;;;24.20;13.40;;;;;;;14.23;68.07;101078.84;7710985;32;40073;-72
2022/10/28 04:14:43;;;;;;;25.30;12.50;;;;;;;14.15;68.43;101079.34;7710689;32;39389;-72
2022/10/28 04:18:59;;;;;;;24.20;13.05;;;;;;;14.34;67.62;101068.75;7709440;32;38039;-73
2022/10/28 04:23:19;;;;;;;28.33;12.40;;;;;;;14.09;68.26;101058.47;7710691;32;37276;-72
2022/10/28 04:27:35;;;;;;;26.60;12.27;;;;;;;13.89;69.40;101065.44;7709356;32;39531;-73
2022/10/28 04:31:52;;;;;;;23.25;11.77;;;;;;;14.30;67.76;101061.31;7710368;32;40046;-72
2022/10/28 04:36:08;;;;;;;29.25;12.57;;;;;;;14.15;68.01;101059.31;7710218;32;38066;-72
2022/10/28 04:40:24;;;;;;;27.10;12.77;;;;;;;13.82;69.41;101062.12;7710317;32;37176;-73
2022/10/28 04:44:40;;;;;;;27.77;12.98;;;;;;;14.11;68.41;101059.03;7710176;32;39395;-73
2022/10/28 04:48:57;;;;;;;33.80;13.65;;;;;;;14.11;68.49;101059.03;7709991;32;39786;-73
2022/10/28 04:53:13;;;;;;;28.80;13.50;;;;;;;14.18;68.49;101054.13;7709747;32;37659;-73
2022/10/28 04:57:29;;;;;;;29.98;15.25;;;;;;;14.15;68.43;101060.13;7709734;32;37986;-73
2022/10/28 05:01:45;;;;;;;34.42;15.43;;;;;;;14.24;68.34;101057.72;7709694;32;40047;-73
2022/10/28 05:06:02;;;;;;;32.78;15.05;;;;;;;13.95;69.82;101049.03;7709512;32;40264;-72
2022/10/28 05:10:18;;;;;;;30.77;15.43;;;;;;;14.13;69.04;101054.09;7708197;32;38893;-72
2022/10/28 05:14:34;;;;;;;27.10;14.25;;;;;;;14.48;67.76;101057.31;7709342;32;37555;-73
2022/10/28 05:18:51;;;;;;;33.28;14.90;;;;;;;14.12;69.04;101057.09;7712048;32;39916;-72
2022/10/28 05:23:07;;;;;;;31.98;15.82;;;;;;;14.34;68.21;101062.44;7712920;32;40619;-72
2022/10/28 05:27:23;;;;;;;29.58;14.55;;;;;;;14.04;69.29;101063.94;7712906;32;37754;-71
2022/10/28 05:31:39;;;;;;;30.92;15.45;;;;;;;14.11;69.39;101060.94;7712759;32;37110;-72
2022/10/28 05:35:57;;;;;;;28.25;13.52;;;;;;;14.19;68.89;101077.72;7712763;32;39285;-72
2022/10/28 05:40:14;;;;;;;26.37;12.07;;;;;;;14.30;68.56;101083.25;7712825;32;42211;-72
2022/10/28 05:44:30;;;;;;;23.45;12.55;;;;;;;14.03;69.19;101089.69;7712570;32;38110;-71
2022/10/28 05:48:46;;;;;;;27.10;13.13;;;;;;;14.52;67.42;101086.69;7712613;32;37197;-72
2022/10/28 05:53:02;;;;;;;25.90;12.13;;;;;;;14.19;68.58;101085.13;7712309;32;39487;-72
2022/10/28 05:57:19;;;;;;;23.48;11.82;;;;;;;14.51;67.31;101085.03;7712467;32;39760;-72
2022/10/28 06:01:35;;;;;;;25.48;10.45;;;;;;;14.22;67.75;101088.16;7712397;32;37998;-71
2022/10/28 06:05:52;;;;;;;22.55;10.50;;;;;;;14.07;68.08;101086.16;7712378;32;37420;-72
2022/10/28 06:10:10;;;;;;;17.85;9.27;;;;;;;14.12;68.25;101092.75;7711175;32;39174;-73
2022/10/28 06:14:26;;;;;;;21.02;9.38;;;;;;;14.38;67.00;101091.81;7712211;32;39978;-72
2022/10/28 06:18:42;;;;;;;22.02;9.68;;;;;;;14.39;66.70;101098.16;7712220;32;38112;-72
2022/10/28 06:22:58;;;;;;;18.77;8.90;;;;;;;13.64;70.45;101098.13;7711073;32;37939;-72
2022/10/28 06:27:14;;;;;;;19.40;10.00;;;;;;;13.59;70.96;101092.59;7711808;32;40074;-76
2022/10/28 06:31:32;;;;;;;17.45;8.75;;;;;;;13.67;71.25;101092.13;7711569;32;40810;-78
2022/10/28 06:35:48;;;;;;;18.45;9.70;;;;;;;14.16;68.66;101083.75;7711829;32;37792;-73
2022/10/28 06:40:05;;;;;;;19.98;9.60;;;;;;;14.32;67.77;101092.06;7712246;32;37411;-73
2022/10/28 06:44:21;;;;;;;19.23;9.98;;;;;;;13.94;68.58;101091.28;7711991;32;39205;-73
2022/10/28 06:48:37;;;;;;;21.92;10.27;;;;;;;14.02;68.64;101093.50;7711896;32;40502;-71
2022/10/28 06:52:58;;;;;;;25.17;11.65;;;;;;;14.11;69.08;101091.09;7711610;32;37976;-72
2022/10/28 06:57:14;;;;;;;25.83;12.70;;;;;;;14.09;69.45;101097.69;7710617;32;37106;-74
2022/10/28 07:01:30;;;;;;;27.27;12.85;;;;;;;13.99;70.17;101094.06;7711647;32;39320;-73
2022/10/28 07:05:48;;;;;;;28.33;12.70;;;;;;;14.41;68.88;101098.69;7711633;32;40253;-74
2022/10/28 07:10:06;;;;;;;26.77;12.13;;;;;;;14.33;69.16;101102.78;7710841;32;36438;-71
2022/10/28 07:14:22;;;;;;;25.35;12.40;;;;;;;14.55;68.62;101121.00;7711596;32;37290;-71
2022/10/28 07:18:38;;;;;;;25.30;12.35;;;;;;;14.57;68.09;101116.91;7711506;32;39780;-72
2022/10/28 07:22:58;;;;;;;30.30;12.85;;;;;;;14.51;68.45;101117.97;7711938;32;40756;-72
2022/10/28 07:27:15;;;;;;;26.17;12.43;;;;;;;14.71;67.84;101105.47;7710311;32;38074;-71
2022/10/28 07:31:31;;;;;;;26.02;11.55;;;;;;;14.25;69.47;101108.75;7711538;32;37025;-72
2022/10/28 07:35:47;;;;;;;25.45;12.00;;;;;;;14.79;67.41;101097.53;7711335;32;39507;-72
2022/10/28 07:40:04;;;;;;;25.20;10.73;;;;;;;14.99;66.64;101102.28;7710987;32;40801;-71
2022/10/28 07:44:20;;;;;;;22.65;10.70;;;;;;;14.80;66.91;101099.19;7711128;32;38064;-72
2022/10/28 07:48:37;;;;;;;26.62;11.00;;;;;;;14.77;67.39;101088.75;7711125;32;37839;-71
2022/10/28 07:52:53;;;;;;;23.85;11.15;;;;;;;14.77;67.62;101093.44;7709689;32;39413;-71
2022/10/28 07:57:10;;;;;;;22.23;10.65;;;;;;;14.79;67.23;101100.28;7710838;32;39830;-71
2022/10/28 08:01:27;;;;;;;18.70;9.95;;;;;;;15.01;66.13;101100.09;7710820;32;38019;-72
2022/10/28 08:05:43;;;;;;;19.02;9.13;;;;;;;15.09;66.38;101100.66;7711074;32;37069;-70
2022/10/28 08:09:59;;;;;;;18.00;9.02;;;;;;;14.91;67.25;101100.06;7710978;32;39178;-70
2022/10/28 08:14:15;;;;;;;22.60;9.10;;;;;;;14.96;67.09;101105.56;7710829;32;40805;-71
2022/10/28 08:18:31;;;;;;;18.77;9.30;;;;;;;15.33;65.75;101114.75;7710704;32;38714;-72
2022/10/28 08:22:48;;;;;;;19.33;9.23;;;;;;;15.30;65.64;101121.63;7710770;32;37981;-75
2022/10/28 08:27:04;;;;;;;21.52;9.98;;;;;;;15.32;65.79;101115.84;7709401;32;39261;-74
2022/10/28 08:31:20;;;;;;;18.98;8.95;;;;;;;15.35;64.98;101115.28;7710459;32;39743;-75
2022/10/28 08:35:37;;;;;;;22.70;10.32;;;;;;;15.47;65.02;101123.28;7710252;32;38623;-73
2022/10/28 08:39:53;;;;;;;20.37;9.75;;;;;;;15.40;65.45;101118.87;7710354;32;37294;-79
2022/10/28 08:44:50;;;;;;;21.58;9.75;;;;;;;15.17;65.93;101120.19;7710155;32;38533;-74
2022/10/28 08:49:13;;;;;;;26.55;10.30;;;;;;;15.62;65.00;101114.25;7709213;32;41206;-75
2022/10/28 08:53:44;;;;;;;22.33;10.00;;;;;;;15.38;65.66;101118.34;7712078;32;38824;-74
2022/10/28 08:58:12;;;;;;;22.40;10.35;;;;;;;15.53;65.08;101117.53;7712018;32;37270;-73
2022/10/28 09:02:54;;;;;;;20.42;10.10;;;;;;;15.62;65.28;101120.56;7718782;32;40129;-75
2022/10/28 09:07:19;;;;;;;20.02;9.48;;;;;;;15.80;64.36;101122.00;7728681;32;39695;-75
2022/10/28 09:11:47;;;;;;;;;;;;;;;15.69;64.54;101115.59;7740288;32;37794;-77
2022/10/28 09:16:31;;;;;;;21.55;10.48;;;;;;;15.79;64.71;101125.00;7740060;32;36857;-75
2022/10/28 09:20:50;;;;;;;19.77;10.07;;;;;;;15.64;65.02;101123.84;7739573;32;40204;-75
2022/10/28 09:25:22;;;;;;;20.65;10.10;;;;;;;15.80;64.54;101116.50;7723389;32;40068;-75
2022/10/28 09:29:47;;;;;;;18.25;9.27;;;;;;;15.87;64.51;101107.97;7717396;32;231786;-75
2022/10/28 09:34:34;;;;;;;24.90;10.18;;;;;;;16.09;63.89;101122.25;7725004;32;38145;-75
2022/10/28 09:38:53;;;;;;;21.25;9.50;;;;;;;15.77;65.08;101123.34;7739044;32;40600;-76
2022/10/28 09:43:34;;;;;;;22.42;10.30;;;;;;;16.04;63.86;101122.28;7726093;32;40001;-74
2022/10/28 09:48:01;;;;;;;21.08;10.20;;;;;;;15.76;65.09;101105.22;7716893;32;37897;-76
2022/10/28 09:52:35;;;;;;;22.48;10.13;;;;;;;16.17;63.70;101111.81;7726249;32;37281;-75
2022/10/28 09:56:51;;;;;;;23.65;10.73;;;;;;;15.80;65.24;101099.16;7739406;32;39166;-75
2022/10/28 10:01:07;;;;;;;21.15;9.77;;;;;;;16.13;63.99;101103.28;7739255;32;39915;-75
2022/10/28 10:05:24;;;;;;;23.48;10.55;;;;;;;15.96;64.61;101114.56;7739170;32;38054;-76
2022/10/28 10:09:42;;;;;;;22.37;10.70;;;;;;;15.75;65.22;101120.06;7739160;32;37377;-75
2022/10/28 10:14:02;;;;;;;24.63;10.40;;;;;;;15.94;64.62;101116.78;7725578;32;39896;-75
2022/10/28 10:18:37;;;;;;;22.95;10.52;;;;;;;16.45;63.17;101116.72;7739012;32;39776;-75
2022/10/28 10:22:53;;;;;;;23.67;11.38;;;;;;;15.94;64.40;101111.28;7725336;32;38734;-75
2022/10/28 10:27:09;;;;;;;25.10;11.85;;;;;;;16.00;64.71;101107.41;7739060;32;37257;-76
2022/10/28 10:31:28;;;;;;;24.40;12.63;;;;;;;15.83;64.98;101102.16;7738989;32;39462;-75
2022/10/28 10:35:51;;;;;;;24.37;11.30;;;;;;;16.07;64.71;101110.69;7725200;32;39954;-75
2022/10/28 10:40:24;;;;;;;24.87;12.30;;;;;;;16.45;63.29;101102.09;7726739;32;38032;-75
2022/10/28 10:44:41;;;;;;;24.40;11.48;;;;;;;16.40;63.41;101102.13;7738819;32;37943;-75
2022/10/28 10:49:13;;;;;;;26.40;11.63;;;;;;;16.61;62.74;101097.38;7738729;32;39349;-75
2022/10/28 10:53:31;;;;;;;19.92;10.63;;;;;;;16.45;63.16;101105.69;7710629;32;40542;-75
2022/10/28 10:57:48;;;;;;;26.60;11.07;;;;;;;16.52;62.91;101100.72;7711703;32;37360;-75
2022/10/28 11:02:19;;;;;;;26.60;11.45;;;;;;;16.51;62.96;101099.06;7711774;32;37250;-75
2022/10/28 11:06:40;;;;;;;24.10;12.63;;;;;;;16.30;63.73;101091.97;7710872;32;39384;-76
2022/10/28 11:11:20;;;;;;;23.30;11.73;;;;;;;16.55;63.33;101082.81;7711733;32;40757;-75
2022/10/28 11:15:36;;;;;;;27.17;12.57;;;;;;;16.75;62.74;101081.06;7710987;32;37765;-76
2022/10/28 11:19:59;;;;;;;24.15;11.77;;;;;;;16.56;63.37;101089.12;7711599;32;37036;-75
2022/10/28 11:24:27;;;;;;;28.12;13.13;;;;;;;16.65;63.31;101077.25;7711336;32;39132;-78
2022/10/28 11:29:13;;;;;;;29.75;14.43;;;;;;;16.70;62.72;101070.91;7711473;32;39940;-76
2022/10/28 11:33:54;;;;;;;24.50;12.80;;;;;;;16.55;63.20;101071.78;7710600;32;38807;-72
2022/10/28 11:38:19;;;;;;;24.70;11.98;;;;;;;16.67;62.63;101063.22;7706191;32;37258;-76
2022/10/28 11:43:05;;;;;;;24.80;11.55;;;;;;;16.57;63.32;101057.75;7737386;32;39065;-77
2022/10/28 11:47:45;;;;;;;22.10;12.10;;;;;;;16.65;62.85;101057.19;7735880;32;38891;-76
2022/10/28 11:52:37;;;;;;;26.02;13.02;;;;;;;16.94;62.25;101051.03;7748467;32;38059;-74
2022/10/28 11:57:04;;;;;;;29.63;13.45;;;;;;;16.75;62.50;101051.63;7755475;32;37931;-75
2022/10/28 12:01:32;;;;;;;27.17;13.27;;;;;;;16.71;63.29;101047.78;7764624;32;39289;-74
2022/10/28 12:05:53;;;;;;;24.77;12.73;;;;;;;16.86;62.90;101049.66;7764009;32;39723;-74
2022/10/28 12:10:15;;;;;;;29.37;13.45;;;;;;;16.84;62.63;101049.94;7764559;32;38599;-74
2022/10/28 12:14:51;;;;;;;31.05;14.20;;;;;;;17.12;61.74;101036.56;7763999;32;37977;-73
2022/10/28 12:19:13;;;;;;;27.87;13.45;;;;;;;17.05;61.97;101033.31;7763709;32;40155;-74
2022/10/28 12:23:30;;;;;;;32.30;14.93;;;;;;;16.98;62.04;101035.56;7750637;32;39625;-76
2022/10/28 12:27:49;;;;;;;30.55;15.38;;;;;;;16.58;63.51;101035.44;7761831;32;39308;-76
2022/10/28 12:32:10;;;;;;;36.55;16.45;;;;;;;16.53;63.88;101030.78;7750624;32;36811;-74
2022/10/28 12:36:54;;;;;;;34.08;17.27;;;;;;;16.82;62.75;101027.34;7763649;32;39639;-73
2022/10/28 12:41:22;;;;;;;28.20;15.52;;;;;;;17.01;61.94;101024.78;7763784;32;40024;-76
2022/10/28 12:45:39;;;;;;;32.95;16.00;;;;;;;16.91;62.40;101018.53;7763689;32;37964;-77
2022/10/28 12:50:07;;;;;;;33.28;16.48;;;;;;;16.83;62.60;101012.50;7762949;32;37247;-74
2022/10/28 12:54:57;;;;;;;35.47;16.87;;;;;;;16.92;62.49;101010.00;7763590;32;39486;-74
2022/10/28 12:59:47;;;;;;;35.10;17.15;;;;;;;16.86;62.29;101003.66;7754288;32;39949;-75
2022/10/28 13:04:03;;;;;;;35.78;16.60;;;;;;;16.83;62.47;100998.72;7747355;32;37822;-76
2022/10/28 13:08:38;;;;;;;36.08;17.30;;;;;;;16.55;63.28;101002.16;7748944;32;37981;-76
2022/10/28 13:13:03;;;;;;;32.63;16.58;;;;;;;16.69;63.21;100995.75;7762807;32;39243;-75
2022/10/28 13:17:39;;;;;;;33.28;16.35;;;;;;;16.71;63.00;100996.31;7750574;32;40471;-75
2022/10/28 13:22:38;;;;;;;36.53;16.95;;;;;;;16.87;62.42;100994.31;7762580;32;38533;-75
2022/10/28 13:27:02;;;;;;;35.60;18.70;;;;;;;16.89;62.47;100991.28;7762300;32;37994;-75
2022/10/28 13:31:19;;;;;;;36.15;17.35;;;;;;;16.68;62.85;100988.59;7762392;32;39380;-75
2022/10/28 13:35:35;;;;;;;39.47;18.75;;;;;;;16.68;63.04;100999.63;7761898;32;39992;-72
2022/10/28 13:39:51;;;;;;;39.05;19.23;;;;;;;16.60;63.20;101000.19;7764463;32;38847;-76
2022/10/28 13:44:08;;;;;;;39.58;18.87;;;;;;;16.61;63.18;100999.09;7766367;32;38083;-74
2022/10/28 13:48:41;;;;;;;37.20;19.08;;;;;;;16.66;62.96;101000.97;7765810;32;39377;-75
2022/10/28 13:53:22;;;;;;;39.58;19.08;;;;;;;16.59;63.34;101003.22;7765707;32;39935;-76
2022/10/28 13:57:44;;;;;;;37.10;17.95;;;;;;;16.59;63.39;101000.47;7765225;32;38822;-76
2022/10/28 14:02:16;;;;;;;37.25;17.77;;;;;;;16.50;63.25;101003.00;7765184;32;38283;-75
2022/10/28 14:07:09;;;;;;;37.67;17.62;;;;;;;16.45;63.73;101008.53;7754090;32;39973;-75
2022/10/28 14:11:31;;;;;;;38.25;18.95;;;;;;;16.32;64.27;101009.97;7765247;32;40540;-76
2022/10/28 14:15:48;;;;;;;34.67;16.75;;;;;;;16.50;63.65;101005.75;7750147;32;37936;-74
2022/10/28 14:20:19;;;;;;;35.42;17.37;;;;;;;16.48;63.53;101011.53;7736574;32;38054;-76
2022/10/28 14:24:38;;;;;;;40.17;19.50;;;;;;;16.38;63.66;101008.00;7765296;32;39422;-74
2022/10/28 14:28:54;;;;;;;37.50;17.83;;;;;;;16.28;64.09;101001.44;7763941;32;39915;-76
2022/10/28 14:33:20;;;;;;;36.75;16.98;;;;;;;16.49;63.23;101004.13;7764914;32;38757;-75
2022/10/28 14:38:04;;;;;;;42.58;18.98;;;;;;;16.50;63.30;100994.75;7765145;32;37996;-76
2022/10/28 14:43:03;;;;;;;36.85;18.27;;;;;;;16.32;63.80;100996.19;7764902;32;39361;-76
2022/10/28 14:47:44;;;;;;;35.90;17.87;;;;;;;16.45;63.24;101001.09;7735301;32;40042;-76
2022/10/28 14:52:15;;;;;;;36.67;17.87;;;;;;;16.38;63.47;100994.25;7742429;32;38856;-75
2022/10/28 14:56:32;;;;;;;33.47;17.30;;;;;;;16.33;63.53;100987.66;7725585;32;38010;-76
2022/10/28 15:01:18;;;;;;;37.40;18.08;;;;;;;16.27;63.76;100987.97;7722109;32;40094;-75
2022/10/28 15:05:34;;;;;;;36.00;17.27;;;;;;;16.36;63.60;100979.94;7713378;32;39879;-76
2022/10/28 15:09:52;;;;;;;34.80;18.42;;;;;;;15.76;65.13;100978.75;7721246;32;38064;-75
2022/10/28 15:14:24;;;;;;;37.60;19.37;;;;;;;15.63;65.93;100976.53;7723889;32;38068;-75
2022/10/28 15:18:45;;;;;;;39.00;19.77;;;;;;;15.89;65.11;100976.53;7732956;32;40055;-75
2022/10/28 15:23:21;;;;;;;36.58;18.75;;;;;;;16.02;64.32;100970.41;7710100;32;41113;-76
2022/10/28 15:27:38;;;;;;;42.42;19.12;;;;;;;15.73;65.43;100979.28;7710012;32;37811;-76
2022/10/28 15:32:20;;;;;;;40.28;19.73;;;;;;;15.73;65.22;100968.28;7705322;32;38658;-74
2022/10/28 15:36:36;;;;;;;36.15;18.90;;;;;;;15.82;64.83;100962.25;7708322;32;39207;-74
2022/10/28 15:40:53;;;;;;;40.83;18.77;;;;;;;15.94;64.61;100965.50;7705165;32;40891;-75
2022/10/28 15:45:23;;;;;;;38.20;19.23;;;;;;;16.05;64.08;100964.38;7709529;32;37713;-76
2022/10/28 15:49:40;;;;;;;36.97;20.52;;;;;;;15.58;65.71;100966.38;7720821;32;37996;-77
2022/10/28 15:54:17;;;;;;;41.78;20.20;;;;;;;15.46;66.14;100967.75;7736811;32;40183;-75
2022/10/28 15:58:37;;;;;;;41.42;18.42;;;;;;;15.81;65.05;100972.41;7720719;32;39996;-75
2022/10/28 16:03:04;;;;;;;37.97;19.75;;;;;;;15.80;64.99;100967.19;7717067;32;38892;-77
2022/10/28 16:07:21;;;;;;;41.97;19.17;;;;;;;15.63;65.41;100962.78;7708961;32;37171;-74
2022/10/28 16:11:41;;;;;;;39.38;19.42;;;;;;;15.36;66.30;100966.66;7730575;32;39344;-74
2022/10/28 16:16:11;;;;;;;37.13;19.45;;;;;;;15.51;65.96;100965.81;7727106;32;40128;-75
2022/10/28 16:20:28;;;;;;;38.35;19.20;;;;;;;15.81;64.97;100969.66;7724422;32;38081;-73
2022/10/28 16:24:45;;;;;;;36.15;18.70;;;;;;;15.61;65.41;100976.00;7721969;32;36964;-75
2022/10/28 16:29:01;;;;;;;38.22;19.30;;;;;;;15.53;66.00;100979.28;7736625;32;40316;-75
2022/10/28 16:33:18;;;;;;;36.45;18.50;;;;;;;15.45;66.23;100977.09;7724111;32;40849;-75
2022/10/28 16:37:34;;;;;;;36.42;18.92;;;;;;;15.27;66.91;100982.03;7720769;32;38821;-75
2022/10/28 16:41:55;;;;;;;37.90;17.95;;;;;;;15.47;66.08;100980.38;7709811;32;37679;-75
2022/10/28 16:46:12;;;;;;;36.47;16.58;;;;;;;15.45;66.19;100988.91;7726817;32;39442;-75
2022/10/28 16:50:28;;;;;;;34.13;17.60;;;;;;;15.27;66.72;100982.03;7733004;32;40854;-75
2022/10/28 16:54:45;;;;;;;39.60;18.10;;;;;;;15.02;67.44;100997.41;7735645;32;38110;-74
2022/10/28 16:59:01;;;;;;;35.13;18.37;;;;;;;15.39;66.50;100990.00;7725191;32;37533;-75
2022/10/28 17:03:18;;;;;;;39.38;18.27;;;;;;;15.58;65.50;100982.84;7728037;32;40163;-74
2022/10/28 17:07:34;;;;;;;29.48;16.30;;;;;;;15.47;66.08;100985.87;7714146;32;39962;-74
2022/10/28 17:11:50;;;;;;;31.48;17.02;;;;;;;15.44;65.98;100981.78;7722404;32;37952;-74
2022/10/28 17:16:06;;;;;;;32.67;16.95;;;;;;;15.06;67.25;101000.44;7738915;32;38043;-74
2022/10/28 17:20:22;;;;;;;39.53;19.65;;;;;;;15.32;66.55;100994.97;7729883;32;39267;-73
2022/10/28 17:24:39;;;;;;;46.58;25.85;;;;;;;15.35;66.50;100989.75;7711949;32;39936;-73
2022/10/28 17:28:55;;;;;;;37.72;21.65;;;;;;;15.31;66.47;100996.87;7698436;32;38592;-73
2022/10/28 17:33:11;;;;;;;35.35;17.12;;;;;;;15.14;67.18;100988.06;7712386;32;37913;-73
2022/10/28 17:37:27;;;;;;;39.75;19.30;;;;;;;15.12;66.94;100995.75;7712010;32;39272;-75
2022/10/28 17:41:43;;;;;;;36.60;18.90;;;;;;;14.87;68.11;100994.62;7712878;32;40061;-74
2022/10/28 17:46:05;;;;;;;37.33;19.02;;;;;;;14.99;67.89;100997.94;7711328;32;38055;-74
2022/10/28 17:50:21;;;;;;;42.03;21.17;;;;;;;14.96;67.96;100993.00;7730718;32;39567;-74
2022/10/28 17:54:37;;;;;;;37.63;18.95;;;;;;;14.99;67.92;100994.38;7739427;32;38919;-75
2022/10/28 17:58:53;;;;;;;35.38;17.08;;;;;;;14.83;68.44;100985.25;7739077;32;40718;-74
2022/10/28 18:03:09;;;;;;;37.40;18.37;;;;;;;15.34;66.84;100984.53;7737659;32;38169;-75
2022/10/28 18:07:26;;;;;;;34.17;18.30;;;;;;;15.06;67.54;100991.38;7738828;32;37471;-74
2022/10/28 18:11:42;;;;;;;39.55;18.30;;;;;;;15.37;66.52;100990.28;7739425;32;40107;-74
2022/10/28 18:16:10;;;;;;;33.53;17.40;;;;;;;15.03;67.58;100999.03;7738981;32;39889;-74
2022/10/28 18:20:26;;;;;;;38.67;18.02;;;;;;;15.12;67.63;100984.78;7724109;32;37967;-75
2022/10/28 18:24:42;;;;;;;34.63;18.95;;;;;;;15.14;67.24;100974.34;7710997;32;38225;-75
2022/10/28 18:29:02;;;;;;;35.85;18.60;;;;;;;15.11;67.47;100978.47;7712041;32;40265;-74
2022/10/28 18:33:19;;;;;;;39.42;17.45;;;;;;;15.05;67.91;100970.50;7712010;32;41457;-75
2022/10/28 18:37:35;;;;;;;41.80;20.20;;;;;;;15.12;67.60;100968.28;7712582;32;37721;-75
2022/10/28 18:41:51;;;;;;;39.58;19.85;;;;;;;14.93;68.44;100973.50;7727034;32;38052;-75
2022/10/28 18:46:08;;;;;;;39.25;20.95;;;;;;;15.17;67.60;100971.03;7712946;32;39666;-79
2022/10/28 18:50:24;;;;;;;45.70;20.23;;;;;;;15.05;68.00;100965.00;7724100;32;39903;-76
2022/10/28 18:54:40;;;;;;;38.33;19.70;;;;;;;14.94;68.45;100965.00;7712751;32;37994;-76
2022/10/28 18:59:00;;;;;;;39.20;18.98;;;;;;;14.98;68.31;100974.31;7726837;32;37986;-76
2022/10/28 19:03:21;;;;;;;41.83;21.10;;;;;;;15.03;68.31;100970.75;7738088;32;39425;-74
2022/10/28 19:07:37;;;;;;;43.05;19.55;;;;;;;15.14;67.91;100971.59;7726828;32;40815;-74
2022/10/28 19:11:53;;;;;;;35.08;18.62;;;;;;;15.18;67.62;100958.97;7749289;32;38053;-76
2022/10/28 19:16:10;;;;;;;39.10;19.95;;;;;;;15.24;67.19;100971.59;7735272;32;37226;-74
2022/10/28 19:20:31;;;;;;;45.03;19.20;;;;;;;15.02;68.14;100969.94;7730192;32;40565;-74
2022/10/28 19:24:47;;;;;;;39.67;19.30;;;;;;;15.28;67.35;100977.38;7723735;32;40590;-75
2022/10/28 19:29:04;;;;;;;39.80;18.60;;;;;;;15.15;67.60;100987.78;7713684;32;38477;-75
2022/10/28 19:33:20;;;;;;;38.20;18.80;;;;;;;15.01;68.16;100994.94;7737786;32;37134;-75
2022/10/28 19:37:36;;;;;;;35.90;17.67;;;;;;;15.31;67.15;100979.56;7736220;32;39445;-75
2022/10/28 19:41:52;;;;;;;43.17;18.50;;;;;;;15.20;67.54;100981.50;7737012;32;39981;-74
2022/10/28 19:46:14;;;;;;;42.05;18.02;;;;;;;15.11;67.89;100989.47;7736929;32;39497;-75
2022/10/28 19:50:30;;;;;;;41.08;19.48;;;;;;;14.69;69.46;100993.19;7732317;32;37423;-74
2022/10/28 19:54:46;;;;;;;41.15;19.12;;;;;;;15.09;68.00;100983.41;7729924;32;39352;-75